createdAt,value
2022-09-27T00:01:09.845Z,98730.16
2022-09-27T00:03:37.978Z,98729.97
2022-09-27T00:06:26.699Z,98722.13
2022-09-27T00:08:54.695Z,98725.19
2022-09-27T00:11:36.878Z,98713.09
2022-09-27T00:14:05.370Z,98714.06
2022-09-27T00:16:35.395Z,98710.44
2022-09-27T00:19:06.467Z,98713.78
2022-09-27T00:21:34.536Z,98713.59
2022-09-27T00:24:02.391Z,98710.88
2022-09-27T00:26:30.094Z,98705.06
2022-09-27T00:28:58.253Z,98705.09
2022-09-27T00:31:29.679Z,98703.66
2022-09-27T00:34:02.167Z,98707.28
2022-09-27T00:36:30.791Z,98711.84
2022-09-27T00:39:02.590Z,98697.41
2022-09-27T00:41:32.839Z,98695.50
2022-09-27T00:44:26.998Z,98697.75
2022-09-27T00:47:14.567Z,98682.34
2022-09-27T00:49:48.979Z,98692.16
2022-09-27T00:52:23.897Z,98679.53
2022-09-27T00:54:55.777Z,98683.59
2022-09-27T00:57:24.122Z,98684.59
2022-09-27T00:59:58.432Z,98684.34
2022-09-27T01:02:25.817Z,98688.09
2022-09-27T01:04:55.705Z,98683.88
2022-09-27T01:07:23.059Z,98681.38
2022-09-27T01:09:50.852Z,98681.38
2022-09-27T01:12:47.653Z,98674.59
2022-09-27T01:15:33.821Z,98684.28
2022-09-27T01:18:20.244Z,98677.44
2022-09-27T01:21:06.726Z,98677.44
2022-09-27T01:23:48.808Z,98669.78
2022-09-27T01:26:29.849Z,98661.88
2022-09-27T01:29:06.718Z,98656.75
2022-09-27T01:31:34.469Z,98654.09
2022-09-27T01:34:46.467Z,98651.59
2022-09-27T01:37:20.615Z,98641.22
2022-09-27T01:39:51.245Z,98644.66
2022-09-27T01:42:50.300Z,98644.34
2022-09-27T01:45:40.555Z,98638.72
2022-09-27T01:48:12.301Z,98636.69
2022-09-27T01:50:45.817Z,98626.69
2022-09-27T01:53:30.586Z,98620.53
2022-09-27T01:55:59.054Z,98622.44
2022-09-27T01:58:42.151Z,98610.97
2022-09-27T02:01:11.308Z,98609.59
2022-09-27T02:03:42.963Z,98609.19
2022-09-27T02:06:16.255Z,98616.34
2022-09-27T02:08:48.500Z,98614.19
2022-09-27T02:11:17.239Z,98615.19
2022-09-27T02:13:50.739Z,98616.59
2022-09-27T02:16:42.898Z,98615.94
2022-09-27T02:19:24.870Z,98613.72
2022-09-27T02:21:56.268Z,98615.38
2022-09-27T02:24:30.816Z,98615.06
2022-09-27T02:27:07.987Z,98608.59
2022-09-27T02:29:41.472Z,98607.50
2022-09-27T02:32:09.608Z,98606.87
2022-09-27T02:34:40.105Z,98593.03
2022-09-27T02:37:07.490Z,98598.31
2022-09-27T02:39:35.236Z,98588.91
2022-09-27T02:42:03.920Z,98599.72
2022-09-27T02:44:31.458Z,98597.59
2022-09-27T02:47:17.968Z,98595.53
2022-09-27T02:49:59.970Z,98582.78
2022-09-27T02:52:50.188Z,98591.59
2022-09-27T02:55:36.947Z,98593.00
2022-09-27T02:58:23.732Z,98592.97
2022-09-27T03:01:11.685Z,98589.44
2022-09-27T03:03:47.067Z,98590.44
2022-09-27T03:06:15.792Z,98583.84
2022-09-27T03:08:44.376Z,98582.34
2022-09-27T03:11:11.783Z,98568.22
2022-09-27T03:14:01.469Z,98571.38
2022-09-27T03:16:27.962Z,98577.28
2022-09-27T03:18:56.915Z,98577.88
2022-09-27T03:21:29.334Z,98581.94
2022-09-27T03:23:57.149Z,98573.75
2022-09-27T03:26:25.625Z,98577.81
2022-09-27T03:28:53.266Z,98571.94
2022-09-27T03:31:21.174Z,98581.84
2022-09-27T03:33:49.533Z,98576.53
2022-09-27T03:36:17.058Z,98571.84
2022-09-27T03:38:45.004Z,98566.22
2022-09-27T03:41:12.767Z,98564.84
2022-09-27T03:43:40.343Z,98564.75
2022-09-27T03:46:08.686Z,98567.50
2022-09-27T03:48:36.320Z,98566.88
2022-09-27T03:51:04.705Z,98558.38
2022-09-27T03:53:32.942Z,98557.44
2022-09-27T03:56:00.487Z,98566.06
2022-09-27T03:58:27.907Z,98558.47
2022-09-27T04:00:55.710Z,98562.66
2022-09-27T04:03:23.669Z,98562.78
2022-09-27T04:05:56.514Z,98567.97
2022-09-27T04:08:25.843Z,98560.94
2022-09-27T04:10:53.255Z,98559.53
2022-09-27T04:13:21.179Z,98560.72
2022-09-27T04:15:52.240Z,98558.25
2022-09-27T04:18:22.210Z,98555.50
2022-09-27T04:20:50.224Z,98554.44
2022-09-27T04:23:20.504Z,98552.22
2022-09-27T04:25:48.762Z,98554.84
2022-09-27T04:28:17.141Z,98546.97
2022-09-27T04:30:46.015Z,98539.97
2022-09-27T04:33:15.931Z,98535.75
2022-09-27T04:36:03.871Z,98533.06
2022-09-27T04:38:31.894Z,98532.16
2022-09-27T04:41:02.045Z,98532.19
2022-09-27T04:43:32.359Z,98531.72
2022-09-27T04:46:00.203Z,98536.94
2022-09-27T04:48:27.709Z,98533.88
2022-09-27T04:51:04.906Z,98536.56
2022-09-27T04:53:33.406Z,98527.06
2022-09-27T04:56:06.082Z,98534.19
2022-09-27T04:58:34.974Z,98532.38
2022-09-27T05:01:04.419Z,98521.16
2022-09-27T05:03:33.957Z,98514.22
2022-09-27T05:06:01.813Z,98517.47
2022-09-27T05:08:29.456Z,98524.44
2022-09-27T05:10:58.778Z,98523.34
2022-09-27T05:13:26.953Z,98520.34
2022-09-27T05:15:54.538Z,98509.94
2022-09-27T05:18:25.340Z,98508.25
2022-09-27T05:20:56.980Z,98508.31
2022-09-27T05:23:25.224Z,98507.41
2022-09-27T05:25:55.346Z,98509.22
2022-09-27T05:28:24.344Z,98496.31
2022-09-27T05:30:52.078Z,98497.06
2022-09-27T05:33:19.922Z,98492.00
2022-09-27T05:35:54.735Z,98485.84
2022-09-27T05:38:23.336Z,98484.06
2022-09-27T05:40:51.752Z,98491.13
2022-09-27T05:43:21.486Z,98476.37
2022-09-27T05:45:49.552Z,98472.91
2022-09-27T05:48:18.348Z,98478.06
2022-09-27T05:50:46.509Z,98480.56
2022-09-27T05:53:13.914Z,98483.94
2022-09-27T05:55:43.176Z,98492.41
2022-09-27T05:58:13.737Z,98483.22
2022-09-27T06:00:44.341Z,98480.75
2022-09-27T06:03:16.098Z,98478.13
2022-09-27T06:05:51.230Z,98488.41
2022-09-27T06:08:20.701Z,98481.56
2022-09-27T06:10:49.762Z,98479.06
2022-09-27T06:13:18.586Z,98486.03
2022-09-27T06:15:47.427Z,98485.06
2022-09-27T06:18:18.604Z,98485.06
2022-09-27T06:20:47.008Z,98482.56
2022-09-27T06:23:18.364Z,98491.25
2022-09-27T06:25:47.786Z,98493.06
2022-09-27T06:28:17.845Z,98492.25
2022-09-27T06:30:47.692Z,98488.84
2022-09-27T06:33:19.736Z,98489.63
2022-09-27T06:35:49.612Z,98486.16
2022-09-27T06:38:18.756Z,98483.63
2022-09-27T06:40:47.365Z,98484.41
2022-09-27T06:43:17.095Z,98478.28
2022-09-27T06:45:45.378Z,98467.06
2022-09-27T06:48:20.007Z,98458.38
2022-09-27T06:50:49.239Z,98463.59
2022-09-27T06:53:17.427Z,98468.81
2022-09-27T06:55:45.446Z,98474.97
2022-09-27T06:58:32.506Z,98486.25
2022-09-27T07:01:02.381Z,98495.84
2022-09-27T07:03:37.627Z,98494.09
2022-09-27T07:06:20.717Z,98491.50
2022-09-27T07:08:53.572Z,98487.16
2022-09-27T07:11:23.713Z,98487.13
2022-09-27T07:13:53.213Z,98493.19
2022-09-27T07:16:20.775Z,98484.53
2022-09-27T07:18:49.099Z,98488.88
2022-09-27T07:21:17.194Z,98488.91
2022-09-27T07:23:44.943Z,98488.06
2022-09-27T07:26:13.174Z,98486.28
2022-09-27T07:28:41.712Z,98486.28
2022-09-27T07:31:09.967Z,98476.72
2022-09-27T07:33:42.377Z,98487.16
2022-09-27T07:36:12.297Z,98484.50
2022-09-27T07:38:40.878Z,98490.59
2022-09-27T07:41:10.284Z,98480.97
2022-09-27T07:43:38.084Z,98474.06
2022-09-27T07:46:06.246Z,98466.22
2022-09-27T07:48:33.978Z,98465.38
2022-09-27T07:51:02.074Z,98468.81
2022-09-27T07:53:34.521Z,98479.22
2022-09-27T07:56:03.626Z,98483.56
2022-09-27T07:58:32.409Z,98475.72
2022-09-27T08:01:01.252Z,98477.47
2022-09-27T08:03:29.112Z,98472.28
2022-09-27T08:05:56.970Z,98472.31
2022-09-27T08:08:24.551Z,98463.63
2022-09-27T08:10:53.794Z,98469.75
2022-09-27T08:13:21.378Z,98474.09
2022-09-27T08:15:49.036Z,98483.63
2022-09-27T08:18:17.686Z,98485.41
2022-09-27T08:20:46.936Z,98482.78
2022-09-27T08:23:16.320Z,98486.22
2022-09-27T08:25:44.376Z,98492.28
2022-09-27T08:28:13.687Z,98484.47
2022-09-27T08:30:41.654Z,98476.69
2022-09-27T08:33:09.472Z,98472.09
2022-09-27T08:35:37.258Z,98473.06
2022-09-27T08:38:06.219Z,98467.81
2022-09-27T08:40:38.379Z,98470.47
2022-09-27T08:43:20.375Z,98476.63
2022-09-27T08:46:15.901Z,98472.34
2022-09-27T08:48:44.967Z,98468.75
2022-09-27T08:51:13.957Z,98463.56
2022-09-27T08:53:51.794Z,98469.66
2022-09-27T08:56:22.820Z,98467.09
2022-09-27T08:58:55.000Z,98463.56
2022-09-27T09:01:28.510Z,98467.88
2022-09-27T09:04:00.270Z,98467.13
2022-09-27T09:06:30.127Z,98466.25
2022-09-27T09:09:11.292Z,98457.53
2022-09-27T09:12:05.310Z,98460.09
2022-09-27T09:15:00.146Z,98454.81
2022-09-27T09:17:51.116Z,98442.72
2022-09-27T09:20:58.435Z,98431.37
2022-09-27T09:23:47.852Z,98435.72
2022-09-27T09:26:36.818Z,98430.50
2022-09-27T09:29:19.562Z,98435.62
2022-09-27T09:31:58.459Z,98433.97
2022-09-27T09:34:49.503Z,98432.25
2022-09-27T09:37:24.744Z,98435.59
2022-09-27T09:40:08.240Z,98432.97
2022-09-27T09:42:48.101Z,98430.44
2022-09-27T09:45:19.895Z,98423.34
2022-09-27T09:47:54.609Z,98425.94
2022-09-27T09:50:27.475Z,98414.59
2022-09-27T09:52:59.588Z,98413.63
2022-09-27T09:55:31.082Z,98409.38
2022-09-27T09:58:24.828Z,98411.91
2022-09-27T10:00:55.678Z,98412.69
2022-09-27T10:03:24.534Z,98418.16
2022-09-27T10:05:52.693Z,98410.19
2022-09-27T10:08:22.373Z,98410.91
2022-09-27T10:10:51.503Z,98403.00
2022-09-27T10:13:22.348Z,98404.12
2022-09-27T10:15:55.501Z,98393.44
2022-09-27T10:18:26.418Z,98397.69
2022-09-27T10:21:00.310Z,98393.66
2022-09-27T10:23:28.799Z,98393.34
2022-09-27T10:26:01.501Z,98392.13
2022-09-27T10:28:37.436Z,98388.06
2022-09-27T10:31:09.663Z,98390.09
2022-09-27T10:33:40.542Z,98378.63
2022-09-27T10:36:32.745Z,98385.91
2022-09-27T10:39:04.626Z,98372.53
2022-09-27T10:41:36.657Z,98370.75
2022-09-27T10:44:16.503Z,98380.88
2022-09-27T10:46:47.778Z,98378.28
2022-09-27T10:49:22.880Z,98379.28
2022-09-27T10:51:54.760Z,98378.88
2022-09-27T10:54:28.300Z,98375.41
2022-09-27T10:57:23.158Z,98374.84
2022-09-27T11:00:04.180Z,98367.16
2022-09-27T11:02:40.126Z,98359.91
2022-09-27T11:05:31.261Z,98357.09
2022-09-27T11:08:03.176Z,98353.25
2022-09-27T11:10:37.597Z,98338.84
2022-09-27T11:13:13.123Z,98340.81
2022-09-27T11:16:07.622Z,98341.13
2022-09-27T11:18:56.910Z,98334.63
2022-09-27T11:22:01.380Z,98335.81
2022-09-27T11:25:13.793Z,98326.94
2022-09-27T11:28:01.035Z,98321.81
2022-09-27T11:30:53.185Z,98313.16
2022-09-27T11:33:53.255Z,98317.37
2022-09-27T11:36:35.288Z,98319.34
2022-09-27T11:39:36.777Z,98321.03
2022-09-27T11:42:24.007Z,98321.28
2022-09-27T11:45:34.197Z,98312.38
2022-09-27T11:48:12.996Z,98303.09
2022-09-27T11:50:56.539Z,98292.53
2022-09-27T11:53:35.411Z,98284.22
2022-09-27T11:56:13.632Z,98284.84
2022-09-27T11:59:05.863Z,98283.09
2022-09-27T12:01:44.082Z,98286.75
2022-09-27T12:04:42.828Z,98281.97
2022-09-27T12:07:16.410Z,98273.25
2022-09-27T12:09:48.510Z,98272.78
2022-09-27T12:12:26.481Z,98266.47
2022-09-27T12:15:07.196Z,98260.97
2022-09-27T12:17:42.913Z,98262.44
2022-09-27T12:20:24.551Z,98270.41
2022-09-27T12:23:01.641Z,98269.47
2022-09-27T12:25:36.346Z,98274.25
2022-09-27T12:28:28.465Z,98269.72
2022-09-27T12:31:28.090Z,98267.47
2022-09-27T12:34:28.117Z,98263.13
2022-09-27T12:37:05.105Z,98252.56
2022-09-27T12:40:20.799Z,98245.84
2022-09-27T12:43:07.045Z,98248.13
2022-09-27T12:45:42.870Z,98226.31
2022-09-27T12:48:35.607Z,98230.38
2022-09-27T12:51:14.832Z,98224.47
2022-09-27T12:53:49.788Z,98224.97
2022-09-27T12:56:23.533Z,98224.53
2022-09-27T12:59:17.687Z,98225.03
2022-09-27T13:02:24.064Z,98224.53
2022-09-27T13:05:22.557Z,98222.84
2022-09-27T13:08:18.174Z,98212.56
2022-09-27T13:10:58.407Z,98216.84
2022-09-27T13:13:28.035Z,98213.59
2022-09-27T13:16:00.696Z,98216.53
2022-09-27T13:18:35.468Z,98208.72
2022-09-27T13:21:07.905Z,98201.31
2022-09-27T13:23:38.874Z,98205.44
2022-09-27T13:26:10.006Z,98211.56
2022-09-27T13:28:47.813Z,98205.47
2022-09-27T13:31:17.223Z,98192.47
2022-09-27T13:33:51.771Z,98198.06
2022-09-27T13:36:26.409Z,98205.59
2022-09-27T13:39:06.677Z,98206.09
2022-09-27T13:41:59.437Z,98207.53
2022-09-27T13:44:43.238Z,98206.56
2022-09-27T13:47:30.545Z,98198.84
2022-09-27T13:50:14.122Z,98197.16
2022-09-27T13:52:45.402Z,98204.22
2022-09-27T13:55:42.856Z,98220.62
2022-09-27T13:58:30.559Z,98253.78
2022-09-27T14:01:06.103Z,98274.62
2022-09-27T14:03:42.896Z,98259.03
2022-09-27T14:06:15.650Z,98253.81
2022-09-27T14:08:46.877Z,98266.84
2022-09-27T14:11:21.615Z,98277.91
2022-09-27T14:13:50.357Z,98261.56
2022-09-27T14:16:20.113Z,98265.09
2022-09-27T14:19:00.673Z,98271.84
2022-09-27T14:21:37.499Z,98266.84
2022-09-27T14:24:23.778Z,98275.59
2022-09-27T14:27:04.136Z,98283.38
2022-09-27T14:29:38.235Z,98287.75
2022-09-27T14:32:10.253Z,98277.31
2022-09-27T14:34:39.463Z,98278.19
2022-09-27T14:37:26.130Z,98281.69
2022-09-27T14:39:57.113Z,98284.28
2022-09-27T14:42:29.047Z,98294.75
2022-09-27T14:45:01.227Z,98286.00
2022-09-27T14:47:29.670Z,98286.87
2022-09-27T14:50:19.046Z,98284.25
2022-09-27T14:52:49.089Z,98287.69
2022-09-27T14:55:19.046Z,98280.78
2022-09-27T14:57:50.692Z,98286.84
2022-09-27T15:00:24.836Z,98292.06
2022-09-27T15:02:56.740Z,98289.44
2022-09-27T15:05:27.023Z,98291.13
2022-09-27T15:07:58.489Z,98294.47
2022-09-27T15:10:29.804Z,98301.34
2022-09-27T15:13:00.064Z,98302.28
2022-09-27T15:15:33.417Z,98306.78
2022-09-27T15:18:02.447Z,98307.53
2022-09-27T15:20:35.437Z,98310.00
2022-09-27T15:23:05.010Z,98304.78
2022-09-27T15:25:39.497Z,98306.44
2022-09-27T15:28:19.980Z,98313.50
2022-09-27T15:30:54.433Z,98318.63
2022-09-27T15:33:26.188Z,98318.50
2022-09-27T15:35:55.600Z,98325.44
2022-09-27T15:38:33.037Z,98327.34
2022-09-27T15:41:04.589Z,98336.88
2022-09-27T15:43:52.614Z,98334.31
2022-09-27T15:46:23.022Z,98332.31
2022-09-27T15:49:27.867Z,98342.81
2022-09-27T15:51:56.847Z,98348.16
2022-09-27T15:54:34.951Z,98345.50
2022-09-27T15:57:04.951Z,98352.69
2022-09-27T15:59:35.138Z,98349.16
2022-09-27T16:02:08.374Z,98357.16
2022-09-27T16:04:36.350Z,98348.41
2022-09-27T16:07:05.151Z,98356.31
2022-09-27T16:09:33.119Z,98358.97
2022-09-27T16:12:00.914Z,98350.28
2022-09-27T16:14:28.616Z,98350.25
2022-09-27T16:16:59.247Z,98351.03
2022-09-27T16:19:27.296Z,98353.22
2022-09-27T16:21:54.715Z,98360.31
2022-09-27T16:24:23.828Z,98354.63
2022-09-27T16:26:51.489Z,98350.31
2022-09-27T16:29:18.962Z,98346.66
2022-09-27T16:31:47.361Z,98344.09
2022-09-27T16:34:15.409Z,98356.31
2022-09-27T16:36:43.223Z,98362.13
2022-09-27T16:39:13.088Z,98372.50
2022-09-27T16:41:41.395Z,98370.75
2022-09-27T16:44:11.032Z,98372.19
2022-09-27T16:46:43.088Z,98373.97
2022-09-27T16:49:30.894Z,98375.59
2022-09-27T16:52:01.882Z,98374.78
2022-09-27T16:54:30.504Z,98381.62
2022-09-27T16:56:59.328Z,98379.63
2022-09-27T16:59:27.450Z,98373.88
2022-09-27T17:01:58.117Z,98388.91
2022-09-27T17:04:27.698Z,98387.09
2022-09-27T17:06:56.365Z,98397.59
2022-09-27T17:09:24.212Z,98405.91
2022-09-27T17:11:51.812Z,98405.59
2022-09-27T17:14:19.645Z,98409.34
2022-09-27T17:16:47.733Z,98406.00
2022-09-27T17:19:16.508Z,98410.63
2022-09-27T17:21:45.644Z,98420.47
2022-09-27T17:24:13.585Z,98419.69
2022-09-27T17:26:41.145Z,98423.37
2022-09-27T17:29:10.858Z,98419.78
2022-09-27T17:31:40.241Z,98424.81
2022-09-27T17:34:12.303Z,98419.72
2022-09-27T17:36:42.363Z,98421.38
2022-09-27T17:39:14.551Z,98413.63
2022-09-27T17:41:42.491Z,98416.97
2022-09-27T17:44:12.892Z,98419.72
2022-09-27T17:46:41.676Z,98426.44
2022-09-27T17:49:28.497Z,98425.03
2022-09-27T17:51:56.005Z,98419.38
2022-09-27T17:54:24.572Z,98424.00
2022-09-27T17:56:51.899Z,98424.91
2022-09-27T17:59:19.707Z,98423.16
2022-09-27T18:01:48.172Z,98424.66
2022-09-27T18:04:18.194Z,98426.47
2022-09-27T18:06:47.074Z,98417.75
2022-09-27T18:09:16.269Z,98424.63
2022-09-27T18:11:44.884Z,98423.69
2022-09-27T18:14:12.469Z,98439.06
2022-09-27T18:16:44.151Z,98443.78
2022-09-27T18:19:14.538Z,98459.38
2022-09-27T18:21:42.867Z,98453.81
2022-09-27T18:24:11.239Z,98448.88
2022-09-27T18:26:40.358Z,98451.59
2022-09-27T18:29:11.610Z,98457.66
2022-09-27T18:31:48.021Z,98471.28
2022-09-27T18:34:16.974Z,98469.87
2022-09-27T18:36:45.320Z,98465.69
2022-09-27T18:39:20.407Z,98463.91
2022-09-27T18:41:50.519Z,98461.41
2022-09-27T18:44:18.809Z,98470.16
2022-09-27T18:46:46.976Z,98481.38
2022-09-27T18:49:16.749Z,98478.91
2022-09-27T18:51:47.113Z,98484.84
2022-09-27T18:54:19.540Z,98490.22
2022-09-27T18:56:48.935Z,98499.22
2022-09-27T18:59:17.713Z,98492.34
2022-09-27T19:01:46.379Z,98500.78
2022-09-27T19:04:20.435Z,98503.56
2022-09-27T19:06:51.968Z,98497.63
2022-09-27T19:09:19.545Z,98504.28
2022-09-27T19:11:47.473Z,98501.53
2022-09-27T19:14:18.408Z,98506.59
2022-09-27T19:16:48.404Z,98508.25
2022-09-27T19:19:17.360Z,98510.19
2022-09-27T19:21:46.440Z,98523.41
2022-09-27T19:24:15.319Z,98519.97
2022-09-27T19:26:43.601Z,98531.03
2022-09-27T19:29:13.337Z,98531.19
2022-09-27T19:31:42.564Z,98526.97
2022-09-27T19:34:11.207Z,98518.16
2022-09-27T19:36:39.081Z,98520.63
2022-09-27T19:39:07.107Z,98520.03
2022-09-27T19:41:34.814Z,98523.63
2022-09-27T19:44:02.699Z,98511.50
2022-09-27T19:46:30.446Z,98511.47
2022-09-27T19:48:58.789Z,98506.13
2022-09-27T19:51:28.091Z,98508.72
2022-09-27T19:53:55.885Z,98505.28
2022-09-27T19:56:24.449Z,98510.34
2022-09-27T19:58:52.269Z,98518.97
2022-09-27T20:01:22.919Z,98517.13
2022-09-27T20:03:52.548Z,98517.03
2022-09-27T20:06:21.050Z,98518.22
2022-09-27T20:08:49.413Z,98524.44
2022-09-27T20:11:19.777Z,98533.03
2022-09-27T20:13:48.096Z,98527.84
2022-09-27T20:16:18.133Z,98529.63
2022-09-27T20:18:50.882Z,98535.59
2022-09-27T20:21:20.659Z,98532.06
2022-09-27T20:23:50.193Z,98527.47
2022-09-27T20:26:18.984Z,98528.28
2022-09-27T20:28:48.294Z,98530.91
2022-09-27T20:31:23.166Z,98536.22
2022-09-27T20:33:52.364Z,98520.41
2022-09-27T20:36:21.335Z,98522.31
2022-09-27T20:38:50.327Z,98533.69
2022-09-27T20:41:20.357Z,98534.06
2022-09-27T20:43:50.874Z,98530.47
2022-09-27T20:46:20.046Z,98533.59
2022-09-27T20:48:55.253Z,98540.91
2022-09-27T20:51:23.256Z,98524.69
2022-09-27T20:53:51.524Z,98525.88
2022-09-27T20:56:31.564Z,98516.09
2022-09-27T20:59:02.117Z,98524.97
2022-09-27T21:01:30.323Z,98518.72
2022-09-27T21:04:00.206Z,98533.72
2022-09-27T21:06:30.403Z,98525.84
2022-09-27T21:08:59.102Z,98532.09
2022-09-27T21:11:27.086Z,98535.66
2022-09-27T21:13:54.889Z,98546.44
2022-09-27T21:16:25.215Z,98537.34
2022-09-27T21:18:54.357Z,98532.84
2022-09-27T21:21:23.480Z,98530.66
2022-09-27T21:23:59.181Z,98524.84
2022-09-27T21:26:29.765Z,98521.50
2022-09-27T21:28:59.012Z,98517.28
2022-09-27T21:31:29.987Z,98517.00
2022-09-27T21:33:59.464Z,98518.06
2022-09-27T21:36:33.008Z,98519.53
2022-09-27T21:39:01.184Z,98521.75
2022-09-27T21:41:28.797Z,98532.19
2022-09-27T21:43:57.358Z,98538.00
2022-09-27T21:46:28.939Z,98546.66
2022-09-27T21:48:59.000Z,98538.97
2022-09-27T21:51:28.422Z,98539.75
2022-09-27T21:53:58.960Z,98544.66
2022-09-27T21:56:29.745Z,98550.12
2022-09-27T21:58:57.427Z,98540.06
2022-09-27T22:01:27.490Z,98546.84
2022-09-27T22:03:55.710Z,98557.75
2022-09-27T22:06:24.499Z,98557.19
2022-09-27T22:08:53.301Z,98566.47
2022-09-27T22:11:43.964Z,98571.78
2022-09-27T22:14:11.985Z,98565.06
2022-09-27T22:16:39.739Z,98547.75
2022-09-27T22:19:07.729Z,98550.78
2022-09-27T22:21:37.205Z,98553.41
2022-09-27T22:24:08.179Z,98546.22
2022-09-27T22:26:38.326Z,98542.19
2022-09-27T22:29:07.098Z,98544.13
2022-09-27T22:31:35.168Z,98568.09
2022-09-27T22:34:05.244Z,98558.25
2022-09-27T22:36:34.247Z,98551.78
2022-09-27T22:39:01.957Z,98557.94
2022-09-27T22:41:30.707Z,98562.69
2022-09-27T22:43:58.418Z,98563.72
2022-09-27T22:46:26.294Z,98561.22
2022-09-27T22:48:55.992Z,98565.78
2022-09-27T22:51:23.634Z,98572.59
2022-09-27T22:53:51.071Z,98570.75
2022-09-27T22:56:20.314Z,98562.75
2022-09-27T22:58:48.790Z,98571.53
2022-09-27T23:01:18.389Z,98589.03
2022-09-27T23:03:47.148Z,98586.78
2022-09-27T23:06:16.303Z,98594.81
2022-09-27T23:08:44.462Z,98591.31
2022-09-27T23:11:18.800Z,98593.91
2022-09-27T23:13:48.074Z,98593.75
2022-09-27T23:16:18.059Z,98591.25
2022-09-27T23:18:47.634Z,98602.47
2022-09-27T23:21:16.058Z,98595.28
2022-09-27T23:23:45.266Z,98601.38
2022-09-27T23:26:14.647Z,98593.69
2022-09-27T23:28:42.309Z,98586.44
2022-09-27T23:31:11.561Z,98585.63
2022-09-27T23:33:41.879Z,98588.59
2022-09-27T23:36:12.230Z,98587.06
2022-09-27T23:38:41.077Z,98591.09
2022-09-27T23:41:08.573Z,98592.88
2022-09-27T23:43:36.506Z,98595.03
2022-09-27T23:46:05.356Z,98596.44
2022-09-27T23:48:36.918Z,98595.56
2022-09-27T23:51:06.834Z,98603.63
2022-09-27T23:53:35.289Z,98599.28
2022-09-27T23:56:07.326Z,98604.28
2022-09-27T23:58:40.311Z,98607.97
